Time;durP1;ratioP1;P1;durP2;ratioP2;P2;SDS_P1;SDS_P2;PMS_P1;PMS_P2;Temp;Humidity;BMP_temperature;BMP_pressure;BME280_temperature;BME280_humidity;BME280_pressure;Samples;Min_cycle;Max_cycle;Signal;HPM_P1;HPM_P2
2023/02/15 00:00:45;;;;;;;39.03;14.87;;;;;;;;;;6199427;23;20220;-91
2023/02/15 00:03:50;;;;;;;36.20;14.93;;;;;;;;;;6182596;23;20171;-91
2023/02/15 00:06:55;;;;;;;39.07;15.30;;;;;;;;;;6199989;23;20196;-90
2023/02/15 00:10:01;;;;;;;40.30;14.87;;;;;;;;;;6182648;23;20271;-90
2023/02/15 00:16:04;;;;;;;42.93;16.50;;;;;;;;;;6165975;23;20275;-89
2023/02/15 00:19:15;;;;;;;45.47;15.93;;;;;;;;;;6181136;23;20167;-91
2023/02/15 00:22:20;;;;;;;43.37;16.30;;;;;;;;;;6198828;23;20175;-90
2023/02/15 00:25:25;;;;;;;39.63;15.67;;;;;;;;;;6181855;23;20175;-89
2023/02/15 00:28:30;;;;;;;36.87;14.73;;;;;;;;;;6197968;23;20225;-89
2023/02/15 00:31:39;;;;;;;35.43;15.40;;;;;;;;;;6180867;23;20168;-90
2023/02/15 00:34:46;;;;;;;43.37;16.20;;;;;;;;;;6201655;23;20167;-91
2023/02/15 00:37:52;;;;;;;40.40;15.57;;;;;;;;;;6183066;23;20176;-90
2023/02/15 00:40:57;;;;;;;39.17;15.67;;;;;;;;;;6183532;23;20245;-90
2023/02/15 00:44:03;;;;;;;44.30;16.00;;;;;;;;;;6182927;23;20172;-90
2023/02/15 00:47:11;;;;;;;38.23;15.67;;;;;;;;;;6200321;23;20172;-90
2023/02/15 00:50:16;;;;;;;36.33;14.27;;;;;;;;;;6183007;23;20179;-90
2023/02/15 00:53:25;;;;;;;32.53;13.37;;;;;;;;;;6201221;23;20249;-90
2023/02/15 00:56:31;;;;;;;34.93;14.07;;;;;;;;;;6183314;23;20168;-89
2023/02/15 00:59:36;;;;;;;33.17;14.30;;;;;;;;;;6184843;23;20172;-90
2023/02/15 01:02:43;;;;;;;34.37;13.97;;;;;;;;;;6183975;23;20159;-88
2023/02/15 01:05:49;;;;;;;31.77;13.33;;;;;;;;;;6199602;23;20211;-90
2023/02/15 01:08:54;;;;;;;29.73;13.03;;;;;;;;;;6184653;23;20198;-90
2023/02/15 01:11:59;;;;;;;31.90;13.00;;;;;;;;;;6184778;23;20603;-89
2023/02/15 01:15:05;;;;;;;34.00;13.80;;;;;;;;;;6183618;23;20175;-90
2023/02/15 01:18:13;;;;;;;33.00;13.07;;;;;;;;;;6183179;23;20171;-89
2023/02/15 01:21:19;;;;;;;37.80;13.33;;;;;;;;;;6183319;23;20168;-90
2023/02/15 01:24:25;;;;;;;32.67;13.80;;;;;;;;;;6183864;23;20164;-90
2023/02/15 01:27:31;;;;;;;40.47;14.20;;;;;;;;;;6183355;23;20163;-90
2023/02/15 01:30:36;;;;;;;35.73;13.57;;;;;;;;;;6183060;23;20199;-91
2023/02/15 01:33:43;;;;;;;29.63;12.27;;;;;;;;;;6184360;23;20179;-89
2023/02/15 01:36:48;;;;;;;32.07;13.20;;;;;;;;;;6182309;23;20172;-90
2023/02/15 01:39:54;;;;;;;31.33;12.47;;;;;;;;;;6184138;23;20604;-90
2023/02/15 01:42:59;;;;;;;33.27;13.40;;;;;;;;;;6201182;23;20627;-89
2023/02/15 01:46:04;;;;;;;28.93;11.77;;;;;;;;;;6184387;23;20175;-89
2023/02/15 01:49:13;;;;;;;35.30;13.67;;;;;;;;;;6184070;23;20196;-89
2023/02/15 01:52:19;;;;;;;33.93;13.97;;;;;;;;;;6183346;23;20164;-89
2023/02/15 01:55:28;;;;;;;30.70;13.10;;;;;;;;;;6201287;23;20160;-89
2023/02/15 01:58:33;;;;;;;28.10;12.40;;;;;;;;;;6184203;23;20167;-89
2023/02/15 02:01:47;;;;;;;31.23;12.10;;;;;;;;;;6183560;23;20172;-89
2023/02/15 02:04:55;;;;;;;29.20;12.50;;;;;;;;;;6183343;23;20607;-90
2023/02/15 02:08:05;;;;;;;29.23;12.70;;;;;;;;;;6199041;23;20183;-90
2023/02/15 02:11:13;;;;;;;30.67;13.20;;;;;;;;;;6182542;23;20182;-89
2023/02/15 02:14:19;;;;;;;29.30;12.97;;;;;;;;;;6199229;23;20171;-90
2023/02/15 02:17:29;;;;;;;31.83;13.13;;;;;;;;;;6182290;23;20199;-90
2023/02/15 02:21:04;;;;;;;29.87;11.97;;;;;;;;;;6198973;23;20178;-91
2023/02/15 02:24:24;;;;;;;30.40;12.33;;;;;;;;;;6110123;23;20166;-91
2023/02/15 02:27:34;;;;;;;29.80;12.57;;;;;;;;;;6199259;23;20171;-90
2023/02/15 02:30:50;;;;;;;27.13;12.10;;;;;;;;;;6180031;23;20270;-89
2023/02/15 02:34:03;;;;;;;29.53;12.63;;;;;;;;;;6199407;23;20241;-91
2023/02/15 02:37:13;;;;;;;31.37;12.70;;;;;;;;;;6182412;23;20168;-90
2023/02/15 02:40:22;;;;;;;26.83;12.07;;;;;;;;;;6199397;23;20558;-91
2023/02/15 02:43:30;;;;;;;28.83;12.80;;;;;;;;;;6181616;23;20220;-91
2023/02/15 02:46:39;;;;;;;29.93;13.27;;;;;;;;;;6198497;23;20163;-90
2023/02/15 02:49:45;;;;;;;31.87;12.93;;;;;;;;;;6183111;23;20200;-91
2023/02/15 02:52:51;;;;;;;29.87;11.93;;;;;;;;;;6200480;23;20229;-90
2023/02/15 02:55:57;;;;;;;26.57;12.20;;;;;;;;;;6183997;23;20172;-91
2023/02/15 02:59:07;;;;;;;31.43;12.90;;;;;;;;;;6183486;23;20184;-92
2023/02/15 03:02:18;;;;;;;29.77;12.53;;;;;;;;;;6182435;23;20167;-91
2023/02/15 03:05:28;;;;;;;30.97;12.73;;;;;;;;;;6199186;23;20283;-90
2023/02/15 03:08:36;;;;;;;28.17;12.07;;;;;;;;;;6182786;23;20152;-91
2023/02/15 03:11:42;;;;;;;33.53;12.93;;;;;;;;;;6199361;23;20240;-91
2023/02/15 03:14:49;;;;;;;31.27;13.67;;;;;;;;;;6182114;23;20178;-90
2023/02/15 03:17:59;;;;;;;31.23;13.17;;;;;;;;;;6199704;23;20191;-91
2023/02/15 03:21:09;;;;;;;31.30;12.77;;;;;;;;;;6199533;23;20172;-90
2023/02/15 03:24:16;;;;;;;29.73;11.70;;;;;;;;;;6199567;23;20175;-90
2023/02/15 03:27:24;;;;;;;30.23;11.97;;;;;;;;;;6200076;23;20176;-90
2023/02/15 03:30:30;;;;;;;35.33;13.40;;;;;;;;;;6198735;23;20517;-90
2023/02/15 03:33:37;;;;;;;33.77;14.10;;;;;;;;;;6199999;23;20255;-90
2023/02/15 03:36:46;;;;;;;28.83;11.87;;;;;;;;;;6199972;23;20224;-92
2023/02/15 03:39:55;;;;;;;28.13;11.53;;;;;;;;;;6200582;23;20172;-92
2023/02/15 03:43:02;;;;;;;29.77;11.83;;;;;;;;;;6200237;23;20175;-91
2023/02/15 03:46:10;;;;;;;30.10;11.73;;;;;;;;;;6200076;23;20168;-90
2023/02/15 03:49:19;;;;;;;30.10;12.03;;;;;;;;;;6201724;23;20174;-91
2023/02/15 03:52:27;;;;;;;31.47;12.33;;;;;;;;;;6199924;23;20627;-91
2023/02/15 03:55:32;;;;;;;30.23;12.40;;;;;;;;;;6181988;23;20184;-91
2023/02/15 04:02:13;;;;;;;31.30;12.43;;;;;;;;;;6199405;23;20183;-91
2023/02/15 04:05:18;;;;;;;29.07;11.80;;;;;;;;;;6181595;23;20211;-91
2023/02/15 04:10:51;;;;;;;29.73;12.00;;;;;;;;;;6201342;23;20192;-91
2023/02/15 04:11:49;;;;;;;29.17;12.67;;;;;;;;;;6199514;23;20183;-91
2023/02/15 04:25:30;;;;;;;33.40;12.23;;;;;;;;;;6152246;23;20168;-91
2023/02/15 04:28:35;;;;;;;30.13;12.47;;;;;;;;;;6166932;23;20180;-90
2023/02/15 04:31:40;;;;;;;29.80;11.93;;;;;;;;;;6153118;23;20180;-91
2023/02/15 04:34:45;;;;;;;31.10;12.87;;;;;;;;;;6153813;23;20176;-91
2023/02/15 04:37:55;;;;;;;31.07;11.70;;;;;;;;;;6168833;23;20177;-90
2023/02/15 04:41:02;;;;;;;31.63;12.43;;;;;;;;;;6170259;23;20193;-90
2023/02/15 04:44:07;;;;;;;26.60;11.30;;;;;;;;;;6152282;23;20172;-92
2023/02/15 04:47:13;;;;;;;25.43;11.53;;;;;;;;;;6169212;23;20220;-89
2023/02/15 04:50:18;;;;;;;27.90;11.67;;;;;;;;;;6170771;23;20195;-91
2023/02/15 04:53:23;;;;;;;28.80;12.40;;;;;;;;;;6168002;23;20342;-90
2023/02/15 04:56:31;;;;;;;25.77;11.10;;;;;;;;;;6168997;23;20615;-90
2023/02/15 04:59:36;;;;;;;25.93;11.30;;;;;;;;;;6151101;23;20172;-90
2023/02/15 05:02:46;;;;;;;29.00;11.87;;;;;;;;;;6150364;23;20164;-89
2023/02/15 05:05:52;;;;;;;30.40;12.10;;;;;;;;;;6169120;23;20364;-90
2023/02/15 05:08:59;;;;;;;29.83;12.47;;;;;;;;;;6169329;23;20176;-90
2023/02/15 05:12:06;;;;;;;34.90;12.70;;;;;;;;;;6168795;23;20225;-91
2023/02/15 05:15:20;;;;;;;31.43;12.67;;;;;;;;;;6167371;23;20232;-90
2023/02/15 05:18:26;;;;;;;28.80;12.20;;;;;;;;;;6167272;23;20180;-90
2023/02/15 05:21:31;;;;;;;31.67;12.97;;;;;;;;;;6153076;23;20228;-90
2023/02/15 05:31:23;;;;;;;31.53;12.23;;;;;;;;;;6171220;23;20216;-91
2023/02/15 05:34:28;;;;;;;34.03;13.40;;;;;;;;;;6154542;23;20750;-90
2023/02/15 05:37:34;;;;;;;35.63;13.20;;;;;;;;;;6172153;23;20172;-90
2023/02/15 05:40:39;;;;;;;34.93;13.33;;;;;;;;;;6156357;23;20176;-89
2023/02/15 05:43:46;;;;;;;32.40;12.83;;;;;;;;;;6173138;23;20217;-91
2023/02/15 05:46:51;;;;;;;30.90;13.37;;;;;;;;;;6153821;23;20173;-90
2023/02/15 05:49:57;;;;;;;31.80;12.77;;;;;;;;;;6171001;23;20173;-90
2023/02/15 05:53:02;;;;;;;34.07;13.30;;;;;;;;;;6155283;23;20576;-91
2023/02/15 05:56:08;;;;;;;32.20;12.47;;;;;;;;;;6170735;23;20177;-92
2023/02/15 05:59:15;;;;;;;32.27;12.20;;;;;;;;;;6155418;23;20167;-90
2023/02/15 06:02:51;;;;;;;34.83;13.33;;;;;;;;;;6170197;23;20148;-89
2023/02/15 06:05:56;;;;;;;30.97;11.97;;;;;;;;;;6154290;23;20177;-89
2023/02/15 06:09:01;;;;;;;32.90;12.97;;;;;;;;;;6154980;23;20169;-91
2023/02/15 06:12:07;;;;;;;29.00;11.93;;;;;;;;;;6170411;23;20248;-92
2023/02/15 06:15:18;;;;;;;30.10;12.03;;;;;;;;;;6153392;23;20172;-90
2023/02/15 06:18:23;;;;;;;30.50;12.37;;;;;;;;;;6172690;23;20168;-92
2023/02/15 06:21:29;;;;;;;33.97;13.37;;;;;;;;;;6172221;23;20168;-90
2023/02/15 06:24:35;;;;;;;31.57;12.73;;;;;;;;;;6155061;23;20173;-90
2023/02/15 06:27:42;;;;;;;32.23;12.87;;;;;;;;;;6152779;23;20168;-92
2023/02/15 06:30:50;;;;;;;34.43;12.37;;;;;;;;;;6153001;23;20208;-91
2023/02/15 06:34:00;;;;;;;36.87;14.97;;;;;;;;;;6170823;23;20184;-90
2023/02/15 06:37:07;;;;;;;33.30;12.40;;;;;;;;;;6173248;23;20176;-91
2023/02/15 06:43:35;;;;;;;31.00;11.97;;;;;;;;;;6173728;23;20218;-92
2023/02/15 06:46:42;;;;;;;35.70;13.10;;;;;;;;;;6153971;23;20252;-90
2023/02/15 06:49:48;;;;;;;38.37;13.60;;;;;;;;;;6172071;23;20248;-90
2023/02/15 06:52:57;;;;;;;33.80;12.87;;;;;;;;;;6171816;23;20193;-92
2023/02/15 06:56:06;;;;;;;29.83;10.53;;;;;;;;;;6154576;23;20172;-90
2023/02/15 06:59:11;;;;;;;38.10;13.17;;;;;;;;;;6153135;23;20180;-91
2023/02/15 07:06:08;;;;;;;37.10;13.70;;;;;;;;;;6171658;23;20169;-92
2023/02/15 07:09:14;;;;;;;33.70;13.27;;;;;;;;;;6153733;23;20172;-90
2023/02/15 07:15:43;;;;;;;34.10;11.97;;;;;;;;;;6173818;23;20202;-90
2023/02/15 07:18:52;;;;;;;38.50;13.60;;;;;;;;;;6182524;23;20172;-90
2023/02/15 07:22:00;;;;;;;38.00;13.87;;;;;;;;;;6183639;23;20180;-90
2023/02/15 07:25:06;;;;;;;36.40;11.73;;;;;;;;;;6183830;23;20176;-91
2023/02/15 07:28:11;;;;;;;37.63;13.63;;;;;;;;;;6198548;23;20241;-89
2023/02/15 07:31:17;;;;;;;38.70;13.00;;;;;;;;;;6183202;23;20195;-89
2023/02/15 07:34:24;;;;;;;33.73;11.87;;;;;;;;;;6199530;23;20168;-88
2023/02/15 07:37:32;;;;;;;37.97;14.57;;;;;;;;;;6184619;23;20180;-92
2023/02/15 07:40:38;;;;;;;38.73;13.50;;;;;;;;;;6186759;23;20171;-94
2023/02/15 07:43:44;;;;;;;43.03;14.17;;;;;;;;;;6182421;23;20168;-91
2023/02/15 07:46:50;;;;;;;41.43;14.00;;;;;;;;;;6183023;23;20176;-91
2023/02/15 07:49:55;;;;;;;39.23;13.53;;;;;;;;;;6184836;23;20171;-91
2023/02/15 07:53:02;;;;;;;35.10;13.67;;;;;;;;;;6201901;23;20184;-90
2023/02/15 07:56:09;;;;;;;40.90;14.83;;;;;;;;;;6183362;23;20552;-91
2023/02/15 07:59:15;;;;;;;42.30;14.60;;;;;;;;;;6200883;23;20236;-90
2023/02/15 08:02:23;;;;;;;44.20;14.80;;;;;;;;;;6184941;23;20155;-90
2023/02/15 08:05:30;;;;;;;42.23;14.83;;;;;;;;;;6183869;23;20210;-93
2023/02/15 08:08:37;;;;;;;44.20;15.13;;;;;;;;;;6182464;23;20176;-90
2023/02/15 08:11:42;;;;;;;43.90;15.17;;;;;;;;;;6199733;23;20272;-92
2023/02/15 08:14:48;;;;;;;50.23;15.67;;;;;;;;;;6182014;23;20269;-91
2023/02/15 08:17:53;;;;;;;42.93;15.30;;;;;;;;;;6181903;23;20245;-92
2023/02/15 08:21:26;;;;;;;40.97;13.70;;;;;;;;;;6183852;23;20167;-91
2023/02/15 08:24:34;;;;;;;41.60;14.53;;;;;;;;;;6185787;23;20217;-89
2023/02/15 08:27:41;;;;;;;45.03;16.80;;;;;;;;;;6185411;23;20246;-90
2023/02/15 08:30:46;;;;;;;46.10;16.50;;;;;;;;;;6182811;23;20191;-89
2023/02/15 08:33:52;;;;;;;44.43;15.57;;;;;;;;;;6204814;23;20156;-91
2023/02/15 08:37:00;;;;;;;42.40;15.43;;;;;;;;;;6186920;23;20176;-92
2023/02/15 08:40:07;;;;;;;45.77;15.33;;;;;;;;;;6203486;23;20171;-91
2023/02/15 08:43:13;;;;;;;45.47;15.57;;;;;;;;;;6186030;23;20251;-90
2023/02/15 08:46:20;;;;;;;36.53;14.10;;;;;;;;;;6186296;23;20168;-92
2023/02/15 08:49:25;;;;;;;46.20;16.53;;;;;;;;;;6187296;23;20167;-89
2023/02/15 08:52:31;;;;;;;48.27;15.87;;;;;;;;;;6203693;23;20243;-91
2023/02/15 08:55:39;;;;;;;44.83;16.90;;;;;;;;;;6188904;23;20187;-91
2023/02/15 08:58:47;;;;;;;42.90;14.67;;;;;;;;;;6189542;23;20303;-90
2023/02/15 09:05:45;;;;;;;48.07;16.20;;;;;;;;;;6188943;23;20159;-90
2023/02/15 09:08:51;;;;;;;47.73;15.63;;;;;;;;;;6208127;23;20164;-90
2023/02/15 09:11:59;;;;;;;49.43;16.30;;;;;;;;;;6189911;23;20191;-91
2023/02/15 09:15:06;;;;;;;47.10;16.23;;;;;;;;;;6206469;23;20175;-90
2023/02/15 09:18:16;;;;;;;51.90;17.00;;;;;;;;;;6188518;23;20148;-89
2023/02/15 09:21:23;;;;;;;54.50;18.90;;;;;;;;;;6189687;23;20200;-90
2023/02/15 09:24:29;;;;;;;47.97;16.43;;;;;;;;;;6189174;23;20167;-90
2023/02/15 09:27:36;;;;;;;54.53;17.10;;;;;;;;;;6188791;23;20179;-91
2023/02/15 09:30:42;;;;;;;54.47;17.33;;;;;;;;;;6205185;23;20176;-91
2023/02/15 09:33:49;;;;;;;54.43;17.70;;;;;;;;;;6189921;23;20215;-90
2023/02/15 09:36:56;;;;;;;60.87;19.57;;;;;;;;;;6190405;23;20196;-92
2023/02/15 09:40:02;;;;;;;55.83;17.00;;;;;;;;;;6188258;23;20155;-90
2023/02/15 09:43:18;;;;;;;61.27;21.60;;;;;;;;;;6208043;23;20159;-91
2023/02/15 09:46:30;;;;;;;57.27;18.33;;;;;;;;;;6190346;23;20197;-90
2023/02/15 09:49:43;;;;;;;47.60;15.87;;;;;;;;;;6189160;23;20151;-90
2023/02/15 09:52:54;;;;;;;54.13;16.73;;;;;;;;;;6191246;23;20194;-91
2023/02/15 09:56:04;;;;;;;50.20;16.37;;;;;;;;;;6187446;23;20190;-91
2023/02/15 09:59:16;;;;;;;53.17;16.10;;;;;;;;;;6186358;23;20672;-90
2023/02/15 10:02:31;;;;;;;70.13;22.27;;;;;;;;;;6204434;23;20164;-89
2023/02/15 10:05:43;;;;;;;62.60;20.30;;;;;;;;;;6188538;23;20173;-91
2023/02/15 10:09:06;;;;;;;54.80;17.47;;;;;;;;;;6185814;23;20221;-90
2023/02/15 10:12:25;;;;;;;47.07;16.03;;;;;;;;;;6187275;23;20241;-91
2023/02/15 10:15:51;;;;;;;55.90;18.50;;;;;;;;;;6204609;23;20220;-91
2023/02/15 10:19:05;;;;;;;55.47;17.00;;;;;;;;;;6185724;23;20177;-91
2023/02/15 10:22:18;;;;;;;50.30;16.13;;;;;;;;;;6204768;23;20176;-89
2023/02/15 10:25:30;;;;;;;54.07;16.73;;;;;;;;;;6186613;23;20167;-90
2023/02/15 10:28:38;;;;;;;44.03;12.70;;;;;;;;;;6203525;23;20168;-89
2023/02/15 10:31:50;;;;;;;51.83;16.73;;;;;;;;;;6187746;23;20200;-93
2023/02/15 10:35:01;;;;;;;54.67;16.80;;;;;;;;;;6185269;23;20176;-89
2023/02/15 10:38:21;;;;;;;53.60;17.27;;;;;;;;;;6187315;23;20168;-91
2023/02/15 10:41:34;;;;;;;47.13;16.03;;;;;;;;;;6202443;23;20164;-89
2023/02/15 10:44:47;;;;;;;51.77;15.43;;;;;;;;;;6185355;23;20521;-89
2023/02/15 10:47:59;;;;;;;56.80;17.33;;;;;;;;;;6185773;23;20541;-91
2023/02/15 10:51:10;;;;;;;52.00;17.33;;;;;;;;;;6185242;23;20211;-90
2023/02/15 10:54:21;;;;;;;48.10;16.27;;;;;;;;;;6202407;23;20175;-92
2023/02/15 10:57:31;;;;;;;52.70;19.80;;;;;;;;;;6185076;23;20163;-90
2023/02/15 11:04:43;;;;;;;49.50;17.57;;;;;;;;;;6186382;23;20155;-90
2023/02/15 11:07:52;;;;;;;46.13;16.00;;;;;;;;;;6184197;23;20223;-89
2023/02/15 11:11:01;;;;;;;46.57;16.33;;;;;;;;;;6201971;23;20223;-91
2023/02/15 11:14:10;;;;;;;48.90;15.97;;;;;;;;;;6184739;23;20188;-90
2023/02/15 11:17:18;;;;;;;47.50;16.13;;;;;;;;;;6202281;23;20235;-90
2023/02/15 11:20:32;;;;;;;49.43;16.83;;;;;;;;;;6186248;23;20167;-88
2023/02/15 11:23:42;;;;;;;53.73;16.57;;;;;;;;;;6204190;23;20191;-90
2023/02/15 11:26:52;;;;;;;45.40;15.47;;;;;;;;;;6186128;23;20175;-88
2023/02/15 11:30:01;;;;;;;47.43;16.83;;;;;;;;;;6187528;23;20172;-91
2023/02/15 11:33:18;;;;;;;47.07;16.03;;;;;;;;;;6185598;23;20195;-90
2023/02/15 11:36:24;;;;;;;54.00;16.40;;;;;;;;;;6203194;23;20172;-89
2023/02/15 11:39:32;;;;;;;43.00;15.37;;;;;;;;;;6185950;23;20174;-91
2023/02/15 11:42:44;;;;;;;52.17;16.73;;;;;;;;;;6187013;23;20163;-89
2023/02/15 11:45:50;;;;;;;49.37;17.27;;;;;;;;;;6185688;23;20172;-91
2023/02/15 11:48:59;;;;;;;45.00;16.43;;;;;;;;;;6187708;23;20243;-88
2023/02/15 11:52:08;;;;;;;46.43;16.43;;;;;;;;;;6185497;23;20198;-88
2023/02/15 11:55:21;;;;;;;49.87;16.53;;;;;;;;;;6184312;23;20241;-89
2023/02/15 11:58:29;;;;;;;52.80;16.93;;;;;;;;;;6182387;23;20182;-90
2023/02/15 12:01:39;;;;;;;49.40;16.70;;;;;;;;;;6185024;23;20152;-91
2023/02/15 12:04:46;;;;;;;48.23;16.67;;;;;;;;;;6187046;23;20160;-90
2023/02/15 12:07:54;;;;;;;58.17;19.33;;;;;;;;;;6186354;23;20168;-89
2023/02/15 12:11:07;;;;;;;48.80;17.33;;;;;;;;;;6183751;23;20171;-91
2023/02/15 12:14:15;;;;;;;51.37;16.97;;;;;;;;;;6184904;23;20174;-91
2023/02/15 12:17:23;;;;;;;50.63;17.57;;;;;;;;;;6185368;23;20194;-92
2023/02/15 12:20:31;;;;;;;46.67;15.93;;;;;;;;;;6181916;23;20171;-93
2023/02/15 12:23:41;;;;;;;52.07;16.07;;;;;;;;;;6183253;23;20228;-90
2023/02/15 12:26:57;;;;;;;51.63;16.73;;;;;;;;;;6199810;23;20238;-94
2023/02/15 12:30:07;;;;;;;51.20;18.27;;;;;;;;;;6183135;23;20171;-91
2023/02/15 12:33:17;;;;;;;47.73;16.90;;;;;;;;;;6185299;23;20261;-90
2023/02/15 12:36:23;;;;;;;43.67;15.40;;;;;;;;;;6184268;23;20171;-90
2023/02/15 12:39:29;;;;;;;40.30;15.63;;;;;;;;;;6204195;23;20171;-91
2023/02/15 12:42:45;;;;;;;43.60;15.00;;;;;;;;;;6185162;23;20167;-91
2023/02/15 12:45:50;;;;;;;42.33;15.03;;;;;;;;;;6183866;23;20560;-91
2023/02/15 12:49:08;;;;;;;37.97;13.67;;;;;;;;;;6185751;23;20176;-91
2023/02/15 12:52:31;;;;;;;39.73;14.57;;;;;;;;;;6184614;23;20211;-91
2023/02/15 12:55:36;;;;;;;37.60;13.23;;;;;;;;;;6184441;23;20192;-91
2023/02/15 12:58:45;;;;;;;37.13;13.27;;;;;;;;;;6183895;23;20152;-90
2023/02/15 13:02:24;;;;;;;37.80;14.13;;;;;;;;;;6183853;23;20176;-90
2023/02/15 13:05:32;;;;;;;39.30;14.20;;;;;;;;;;6202551;23;20167;-91
2023/02/15 13:08:41;;;;;;;35.93;13.30;;;;;;;;;;6181873;23;20245;-88
2023/02/15 13:11:56;;;;;;;33.90;13.47;;;;;;;;;;6183049;23;20156;-90
2023/02/15 13:15:05;;;;;;;40.90;15.07;;;;;;;;;;6203070;23;20159;-89
2023/02/15 13:18:15;;;;;;;41.87;14.73;;;;;;;;;;6182926;23;20508;-91
2023/02/15 13:21:22;;;;;;;39.27;14.70;;;;;;;;;;6200783;23;20659;-89
2023/02/15 13:24:29;;;;;;;41.47;14.40;;;;;;;;;;6183239;23;20219;-91
2023/02/15 13:27:37;;;;;;;37.67;14.27;;;;;;;;;;6182454;23;20163;-88
2023/02/15 13:30:47;;;;;;;41.07;15.43;;;;;;;;;;6183383;23;20168;-91
2023/02/15 13:33:53;;;;;;;42.37;15.80;;;;;;;;;;6200877;23;20198;-89
2023/02/15 13:37:03;;;;;;;37.23;14.70;;;;;;;;;;6183221;23;20195;-91
2023/02/15 13:40:10;;;;;;;41.60;14.77;;;;;;;;;;6184447;23;20172;-92
2023/02/15 13:43:22;;;;;;;44.17;14.97;;;;;;;;;;6186575;23;20200;-92
2023/02/15 13:46:39;;;;;;;37.63;14.30;;;;;;;;;;6186571;23;20172;-92
2023/02/15 13:49:50;;;;;;;43.67;15.30;;;;;;;;;;6186500;23;20172;-90
2023/02/15 13:53:00;;;;;;;44.53;15.90;;;;;;;;;;6184800;23;20262;-92
2023/02/15 13:56:09;;;;;;;41.57;16.27;;;;;;;;;;6184201;23;20242;-90
2023/02/15 13:59:23;;;;;;;41.50;14.80;;;;;;;;;;6203648;23;20168;-90
2023/02/15 14:02:45;;;;;;;43.90;15.90;;;;;;;;;;6184288;23;20219;-90
2023/02/15 14:06:07;;;;;;;44.90;15.83;;;;;;;;;;6184517;23;20176;-91
2023/02/15 14:09:18;;;;;;;47.57;16.00;;;;;;;;;;6184201;23;20176;-91
2023/02/15 14:12:33;;;;;;;47.80;16.30;;;;;;;;;;6184430;23;20200;-90
2023/02/15 14:15:43;;;;;;;42.50;17.03;;;;;;;;;;6184075;23;20203;-90
2023/02/15 14:18:53;;;;;;;45.13;18.10;;;;;;;;;;6202048;23;20195;-90
2023/02/15 14:22:04;;;;;;;40.00;15.50;;;;;;;;;;6183991;23;20260;-90
2023/02/15 14:25:18;;;;;;;44.07;15.37;;;;;;;;;;6183915;23;20176;-89
2023/02/15 14:28:29;;;;;;;41.27;14.80;;;;;;;;;;6183048;23;20179;-88
2023/02/15 14:31:37;;;;;;;41.97;14.80;;;;;;;;;;6202115;23;20163;-91
2023/02/15 14:34:46;;;;;;;46.03;16.27;;;;;;;;;;6183983;23;20179;-91
2023/02/15 14:37:57;;;;;;;44.23;15.30;;;;;;;;;;6200021;23;20176;-90
2023/02/15 14:41:07;;;;;;;43.70;14.90;;;;;;;;;;6183224;23;20172;-91
2023/02/15 14:44:17;;;;;;;45.57;16.03;;;;;;;;;;6201085;23;20187;-90
2023/02/15 14:47:27;;;;;;;42.67;14.90;;;;;;;;;;6183973;23;20191;-89
2023/02/15 14:50:40;;;;;;;43.30;15.43;;;;;;;;;;6201564;23;20216;-90
2023/02/15 14:54:02;;;;;;;41.53;16.00;;;;;;;;;;6182867;23;20199;-88
2023/02/15 14:57:28;;;;;;;35.07;13.93;;;;;;;;;;6203861;23;20172;-90
2023/02/15 15:00:58;;;;;;;41.73;15.07;;;;;;;;;;6182126;23;20172;-90
2023/02/15 15:04:08;;;;;;;42.53;14.80;;;;;;;;;;6202631;23;20175;-88
2023/02/15 15:07:19;;;;;;;41.43;16.40;;;;;;;;;;6183088;23;20615;-91
2023/02/15 15:10:41;;;;;;;40.70;15.67;;;;;;;;;;6185347;23;20229;-87
2023/02/15 15:13:58;;;;;;;42.13;16.57;;;;;;;;;;6202533;23;20195;-89
2023/02/15 15:17:04;;;;;;;42.27;15.47;;;;;;;;;;6185126;23;20204;-90
2023/02/15 15:20:16;;;;;;;44.80;16.20;;;;;;;;;;6183002;23;20176;-91
2023/02/15 15:23:40;;;;;;;42.47;15.90;;;;;;;;;;6182140;23;20219;-87
2023/02/15 15:26:50;;;;;;;50.47;17.40;;;;;;;;;;6180878;23;20172;-89
2023/02/15 15:29:57;;;;;;;41.80;16.17;;;;;;;;;;6183122;23;20171;-89
2023/02/15 15:33:10;;;;;;;42.60;14.97;;;;;;;;;;6183712;23;20192;-88
2023/02/15 15:36:24;;;;;;;51.73;17.63;;;;;;;;;;6184496;23;20243;-87
2023/02/15 15:39:49;;;;;;;46.47;16.47;;;;;;;;;;6183247;23;20168;-87
2023/02/15 15:43:09;;;;;;;50.17;17.37;;;;;;;;;;6183083;23;20175;-89
2023/02/15 15:46:30;;;;;;;47.10;17.10;;;;;;;;;;6158142;23;20261;-90
2023/02/15 15:49:36;;;;;;;51.50;17.53;;;;;;;;;;6184292;23;20172;-90
2023/02/15 15:52:43;;;;;;;47.53;16.50;;;;;;;;;;6199605;23;20820;-93
2023/02/15 15:55:49;;;;;;;45.83;16.67;;;;;;;;;;6183522;23;20163;-91
2023/02/15 15:58:55;;;;;;;47.63;17.13;;;;;;;;;;6201665;23;20235;-89
2023/02/15 16:02:25;;;;;;;48.80;17.80;;;;;;;;;;6183545;23;20180;-91
2023/02/15 16:05:38;;;;;;;46.33;16.30;;;;;;;;;;6201306;23;20167;-90
2023/02/15 16:08:43;;;;;;;44.30;17.00;;;;;;;;;;6201476;23;20164;-90
2023/02/15 16:11:49;;;;;;;48.17;17.73;;;;;;;;;;6183861;23;20171;-90
2023/02/15 16:14:56;;;;;;;46.10;17.50;;;;;;;;;;6182350;23;20237;-91
2023/02/15 16:18:02;;;;;;;49.93;15.90;;;;;;;;;;6184849;23;20626;-91
2023/02/15 16:21:15;;;;;;;45.63;17.40;;;;;;;;;;6182463;23;20287;-92
2023/02/15 16:24:26;;;;;;;49.90;18.07;;;;;;;;;;6182672;23;20172;-91
2023/02/15 16:27:36;;;;;;;49.93;17.87;;;;;;;;;;6199637;23;20630;-91
2023/02/15 16:30:44;;;;;;;53.20;18.40;;;;;;;;;;6200064;23;20302;-91
2023/02/15 16:33:49;;;;;;;52.30;18.97;;;;;;;;;;6201174;23;20271;-92
2023/02/15 16:37:13;;;;;;;58.13;18.27;;;;;;;;;;6199623;23;20283;-91
2023/02/15 16:40:29;;;;;;;56.73;19.30;;;;;;;;;;6201853;23;20184;-91
2023/02/15 16:43:34;;;;;;;53.80;18.47;;;;;;;;;;6198605;23;20176;-92
2023/02/15 16:46:42;;;;;;;108.10;33.27;;;;;;;;;;6182371;23;20176;-92
2023/02/15 16:49:48;;;;;;;57.20;20.77;;;;;;;;;;6199719;23;20163;-91
2023/02/15 16:52:55;;;;;;;56.00;19.17;;;;;;;;;;6202051;23;20164;-89
2023/02/15 16:56:02;;;;;;;52.63;19.10;;;;;;;;;;6198327;23;20172;-90
2023/02/15 16:59:07;;;;;;;50.73;18.47;;;;;;;;;;6198464;23;20172;-91
2023/02/15 17:02:21;;;;;;;50.47;18.40;;;;;;;;;;6200897;23;20230;-90
2023/02/15 17:05:32;;;;;;;51.10;18.17;;;;;;;;;;6183172;23;20168;-90
2023/02/15 17:08:43;;;;;;;52.40;17.93;;;;;;;;;;6203816;23;20251;-90
2023/02/15 17:11:50;;;;;;;55.13;18.73;;;;;;;;;;6200548;23;20497;-90
2023/02/15 17:14:56;;;;;;;52.10;18.47;;;;;;;;;;6200991;23;20191;-88
2023/02/15 17:18:06;;;;;;;48.03;17.47;;;;;;;;;;6172946;23;20172;-89
2023/02/15 17:21:12;;;;;;;56.57;18.50;;;;;;;;;;6174967;23;20168;-91
2023/02/15 17:24:23;;;;;;;55.80;18.03;;;;;;;;;;6173276;23;20194;-90
2023/02/15 17:27:30;;;;;;;58.03;18.37;;;;;;;;;;6172710;23;20193;-90
2023/02/15 17:30:39;;;;;;;56.00;19.50;;;;;;;;;;6174289;23;20176;-92
2023/02/15 17:33:47;;;;;;;60.07;20.23;;;;;;;;;;6174566;23;20208;-89
2023/02/15 17:36:58;;;;;;;56.13;19.83;;;;;;;;;;6171962;23;20255;-89
2023/02/15 17:40:15;;;;;;;63.17;21.00;;;;;;;;;;6171728;23;20173;-92
2023/02/15 17:43:20;;;;;;;76.13;24.73;;;;;;;;;;6172696;23;20173;-91
2023/02/15 17:46:26;;;;;;;60.67;21.40;;;;;;;;;;6170949;23;20176;-90
2023/02/15 17:49:33;;;;;;;62.13;20.10;;;;;;;;;;6171785;23;20229;-92
2023/02/15 17:52:39;;;;;;;64.23;22.87;;;;;;;;;;6172318;23;20160;-91
2023/02/15 17:55:46;;;;;;;57.27;20.27;;;;;;;;;;6171476;23;20269;-91
2023/02/15 17:58:53;;;;;;;46.70;17.67;;;;;;;;;;6170604;23;20304;-90
2023/02/15 18:12:19;;;;;;;56.80;19.23;;;;;;;;;;6174542;23;20169;-92
2023/02/15 18:15:27;;;;;;;57.37;20.07;;;;;;;;;;6173548;23;20176;-89
2023/02/15 18:18:33;;;;;;;50.60;17.93;;;;;;;;;;6171887;23;20157;-90
2023/02/15 18:21:49;;;;;;;51.97;17.03;;;;;;;;;;6171361;23;20261;-89
2023/02/15 18:24:54;;;;;;;53.17;17.43;;;;;;;;;;6172334;23;20157;-89
2023/02/15 18:28:02;;;;;;;52.20;18.27;;;;;;;;;;6170097;23;20169;-91
2023/02/15 18:31:08;;;;;;;54.47;18.13;;;;;;;;;;6171536;23;20624;-93
2023/02/15 18:34:22;;;;;;;59.00;17.90;;;;;;;;;;6173206;23;20180;-90
2023/02/15 18:37:29;;;;;;;50.53;18.50;;;;;;;;;;6172159;23;20620;-89
2023/02/15 18:40:34;;;;;;;56.83;19.03;;;;;;;;;;6170398;23;20241;-89
2023/02/15 18:43:41;;;;;;;57.63;18.70;;;;;;;;;;6169317;23;20169;-89
2023/02/15 18:46:46;;;;;;;64.43;21.63;;;;;;;;;;6171196;23;20248;-93
2023/02/15 18:49:52;;;;;;;57.33;20.57;;;;;;;;;;6169453;23;20249;-91
2023/02/15 18:52:58;;;;;;;59.63;20.47;;;;;;;;;;6170140;23;20218;-90
2023/02/15 18:56:03;;;;;;;54.33;18.73;;;;;;;;;;6168419;23;20169;-88
2023/02/15 18:59:15;;;;;;;55.40;19.97;;;;;;;;;;6170306;23;20176;-90
2023/02/15 19:02:28;;;;;;;55.67;20.60;;;;;;;;;;6171298;23;20600;-92
2023/02/15 19:05:35;;;;;;;52.47;19.07;;;;;;;;;;6172185;23;20173;-90
2023/02/15 19:08:40;;;;;;;52.73;17.30;;;;;;;;;;6170497;23;20168;-89
2023/02/15 19:11:49;;;;;;;55.57;18.70;;;;;;;;;;6173342;23;20225;-89